Flight Track Log - Related Links

Times and Time Zones

All times are in EDT time to prevent confusion due to time zone crossing. See the FLG3662 flight status page for this flight to view local times or setup timezone preferences in your user account.

Time Position Orientation Groundspeed Altitude Reporting Facility
EDT Latitude Longitude Course Direction KTS MPH feet Rate Location/Type
Mon 07:29:36 AM 42.8914 -85.4489 146° Southeast 189 217 2,700  Level Chicago Center
Mon 07:30:37 AM 42.8361 -85.3989 146° Southeast 207 238 5,200 2,557 Climbing Chicago Center
Mon 07:31:38 AM 42.7614 -85.3925 176° South 256 295 7,900 2,754 Climbing Chicago Center
Mon 07:32:39 AM 42.6842 -85.3828 175° South 276 318 10,800 2,293 Climbing Chicago Center
Mon 07:33:41 AM 42.5944 -85.3728 175° South 325 374 12,600 1,854 Climbing Chicago Center
Mon 07:34:42 AM 42.4994 -85.3614 175° South 341 392 14,600 2,000 Climbing Chicago Center
Mon 07:35:44 AM 42.3964 -85.3489 175° South 366 421 16,700 2,049 Climbing Chicago Center
Mon 07:36:45 AM 42.2894 -85.3364 175° South 381 438 18,800 1,574 Climbing Chicago Center
Mon 07:37:46 AM 42.1758 -85.3239 175° South 406 467 19,900 1,073 Climbing Chicago Center
Mon 07:38:48 AM 42.0567 -85.3106 175° South 423 487 21,000 537 Climbing Chicago Center
Mon 07:39:49 AM 41.9183 -85.2950 175° South 440 506 21,000  Level Chicago Center
Mon 07:40:51 AM 41.7953 -85.2803 175° South 440 506 21,000  Level Chicago Center
Mon 07:41:52 AM 41.6700 -85.2653 175° South 441 507 21,000  Level Chicago Center
Mon 07:42:54 AM 41.5431 -85.2506 175° South 443 510 21,000  Level Chicago Center
Mon 07:43:55 AM 41.4181 -85.2358 175° South 443 510 21,000  Level Chicago Center
Mon 07:44:57 AM 41.2944 -85.2222 175° South 443 510 21,000  Level Chicago Center
Mon 07:45:58 AM 41.1714 -85.2081 175° South 443 510 21,000  Level Chicago Center
Mon 07:47:00 AM 41.0483 -85.1942 175° South 443 510 21,000  Level Chicago Center
Mon 07:48:01 AM 40.9256 -85.1717 172° South 443 510 21,000  Level Chicago Center
Mon 07:49:03 AM 40.7789 -85.1272 167° South 446 513 21,000  Level Chicago Center
Mon 07:50:04 AM 40.6583 -85.0939 168° South 447 514 21,000  Level Chicago Center
Mon 07:50:50 AM 40.5689 -85.0703 169° South 447 514 21,000  Level Indianapolis Center
Mon 07:51:51 AM 40.4456 -85.0344 168° South 448 516 21,000 -1,122 Level Indianapolis Center
Mon 07:52:53 AM 40.3272 -85.0006 168° South 444 511 18,700 -2,400 Descending Indianapolis Center
Mon 07:53:26 AM 40.2508 -84.9789 168° South 412 474 17,200 -2,226 Descending Indianapolis Center
Mon 07:53:55 AM 40.2144 -84.9686 168° South 423 487 16,400 -2,361 Descending Indianapolis Center
Mon 07:54:27 AM 40.1428 -84.9472 167° South 397 457 14,800 -2,419 Descending Indianapolis Center
Mon 07:54:57 AM 40.1064 -84.9381 169° South 405 466 13,900 -2,459 Descending Indianapolis Center
Mon 07:55:28 AM 40.0386 -84.9192 168° South 386 444 12,300 -2,419 Descending Indianapolis Center
Mon 07:55:59 AM 40.0025 -84.9092 168° South 392 451 11,400 -2,200 Descending Indianapolis Center
Mon 07:56:28 AM 39.9406 -84.8922 168° South 352 405 10,100 -1,377 Descending Indianapolis Center
Mon 07:57:00 AM 39.8947 -84.8783 167° South 371 427 10,000 -98 Descending Indianapolis Center
Mon 07:57:29 AM 39.8344 -84.8614 168° South 356 410 10,000  Level Indianapolis Center
Mon 07:58:02 AM 39.7978 -84.8517 168° South 362 417 10,000 -63 Level Indianapolis Center
Mon 07:59:04 AM 39.7075 -84.8772 192° South 350 403 9,900 -290 Descending Indianapolis Center
Mon 08:00:06 AM 39.6164 -84.8472 166° South 299 344 9,400 -726 Descending Indianapolis Center
Mon 08:01:08 AM 39.5425 -84.8083 158° South 290 334 8,400 -968 Descending Indianapolis Center
Mon 08:02:10 AM 39.4703 -84.7700 158° South 286 329 7,400 -1,016 Descending Indianapolis Center
Mon 08:03:12 AM 39.4014 -84.7319 157° South 278 320 6,300 -1,113 Descending Indianapolis Center
Mon 08:04:14 AM 39.3336 -84.6958 158° South 273 314 5,100 -1,171 Descending Indianapolis Center
Mon 08:05:15 AM 39.2689 -84.6658 160° South 256 295 3,900 -1,024 Descending Indianapolis Center
Mon 08:06:17 AM 39.1889 -84.6686 182° South 248 285 3,000 -532 Descending Indianapolis Center
Mon 08:07:19 AM 39.1197 -84.6719 182° South 245 282 2,800 -639 Descending Indianapolis Center
Mon 08:08:19 AM 39.1000 -84.6667 168° South 134 154 1,700 -1,100 Descending Cincinnati TRACON
Mon 08:10:00 AM 39.0488 -84.6678 142° Southeast  Level Estimated
Mon 08:17:00 AM 39.0488 -84.6678 142° Southeast  Level Estimated

Login

Don't have an account? Register now (free) for customized features, flight alerts, and more!